sensor_id;sensor_type;location;lat;lon;timestamp;pressure;altitude;pressure_sealevel;temperature;humidity
20752;BME280;10536;51.582;5.016;2022-09-01T00:00:10;102092.69;;;19.93;100.00
20752;BME280;10536;51.582;5.016;2022-09-01T00:05:12;102087.78;;;19.83;100.00
20752;BME280;10536;51.582;5.016;2022-09-01T00:10:13;102084.84;;;19.64;100.00
20752;BME280;10536;51.582;5.016;2022-09-01T00:15:14;102079.94;;;19.53;100.00
20752;BME280;10536;51.582;5.016;2022-09-01T00:20:14;102083.44;;;19.52;100.00
20752;BME280;10536;51.582;5.016;2022-09-01T00:25:16;102084.19;;;19.27;100.00
20752;BME280;10536;51.582;5.016;2022-09-01T00:30:19;102078.88;;;19.29;100.00
20752;BME280;10536;51.582;5.016;2022-09-01T00:35:23;102077.53;;;19.45;100.00
20752;BME280;10536;51.582;5.016;2022-09-01T00:40:24;102081.28;;;19.37;100.00
20752;BME280;10536;51.582;5.016;2022-09-01T00:45:25;102078.66;;;19.37;100.00
20752;BME280;10536;51.582;5.016;2022-09-01T00:50:25;102084.84;;;19.36;100.00
20752;BME280;10536;51.582;5.016;2022-09-01T00:55:32;102073.34;;;19.40;100.00
20752;BME280;10536;51.582;5.016;2022-09-01T01:00:38;102067.09;;;19.44;100.00
20752;BME280;10536;51.582;5.016;2022-09-01T01:05:44;102072.22;;;19.47;100.00
20752;BME280;10536;51.582;5.016;2022-09-01T01:10:53;102064.28;;;19.50;100.00
20752;BME280;10536;51.582;5.016;2022-09-01T01:15:53;102065.50;;;19.38;100.00
20752;BME280;10536;51.582;5.016;2022-09-01T01:21:00;102061.06;;;19.40;100.00
20752;BME280;10536;51.582;5.016;2022-09-01T01:26:20;102062.72;;;19.43;100.00
20752;BME280;10536;51.582;5.016;2022-09-01T01:31:21;102061.84;;;19.44;100.00
20752;BME280;10536;51.582;5.016;2022-09-01T01:36:29;102063.06;;;19.32;100.00
20752;BME280;10536;51.582;5.016;2022-09-01T01:41:33;102061.16;;;19.37;100.00
20752;BME280;10536;51.582;5.016;2022-09-01T01:46:35;102070.44;;;19.19;100.00
20752;BME280;10536;51.582;5.016;2022-09-01T01:51:42;102065.91;;;19.24;100.00
20752;BME280;10536;51.582;5.016;2022-09-01T01:56:43;102079.94;;;19.23;100.00
20752;BME280;10536;51.582;5.016;2022-09-01T02:01:44;102075.91;;;19.11;100.00
20752;BME280;10536;51.582;5.016;2022-09-01T02:06:49;102073.66;;;18.98;100.00
20752;BME280;10536;51.582;5.016;2022-09-01T02:11:51;102075.63;;;18.91;100.00
20752;BME280;10536;51.582;5.016;2022-09-01T02:16:55;102075.59;;;19.22;100.00
20752;BME280;10536;51.582;5.016;2022-09-01T02:21:56;102068.94;;;18.79;100.00
20752;BME280;10536;51.582;5.016;2022-09-01T02:26:59;102068.94;;;18.81;100.00
20752;BME280;10536;51.582;5.016;2022-09-01T02:31:59;102065.41;;;18.79;100.00
20752;BME280;10536;51.582;5.016;2022-09-01T02:37:00;102066.22;;;18.82;100.00
20752;BME280;10536;51.582;5.016;2022-09-01T02:42:00;102073.88;;;18.57;100.00
20752;BME280;10536;51.582;5.016;2022-09-01T02:47:01;102063.53;;;18.52;100.00
20752;BME280;10536;51.582;5.016;2022-09-01T02:52:04;102061.91;;;18.81;100.00
20752;BME280;10536;51.582;5.016;2022-09-01T02:57:05;102061.81;;;18.84;100.00
20752;BME280;10536;51.582;5.016;2022-09-01T03:02:08;102061.63;;;18.59;100.00
20752;BME280;10536;51.582;5.016;2022-09-01T03:07:09;102057.25;;;18.58;100.00
20752;BME280;10536;51.582;5.016;2022-09-01T03:12:09;102054.88;;;18.49;100.00
20752;BME280;10536;51.582;5.016;2022-09-01T03:17:10;102051.34;;;18.17;100.00
20752;BME280;10536;51.582;5.016;2022-09-01T03:22:11;102054.13;;;18.11;100.00
20752;BME280;10536;51.582;5.016;2022-09-01T03:27:11;102050.19;;;17.93;100.00
20752;BME280;10536;51.582;5.016;2022-09-01T03:32:12;102052.63;;;18.01;100.00
20752;BME280;10536;51.582;5.016;2022-09-01T03:37:12;102052.34;;;18.11;100.00
20752;BME280;10536;51.582;5.016;2022-09-01T03:42:13;102051.72;;;18.02;100.00
20752;BME280;10536;51.582;5.016;2022-09-01T03:47:27;102046.78;;;17.89;100.00
20752;BME280;10536;51.582;5.016;2022-09-01T03:52:28;102046.28;;;17.73;100.00
20752;BME280;10536;51.582;5.016;2022-09-01T03:57:32;102046.34;;;17.69;100.00
20752;BME280;10536;51.582;5.016;2022-09-01T04:02:33;102042.59;;;17.81;100.00
20752;BME280;10536;51.582;5.016;2022-09-01T04:07:33;102040.28;;;17.68;100.00
20752;BME280;10536;51.582;5.016;2022-09-01T04:12:34;102042.22;;;17.60;100.00
20752;BME280;10536;51.582;5.016;2022-09-01T04:17:36;102040.06;;;17.40;100.00
20752;BME280;10536;51.582;5.016;2022-09-01T04:22:58;102039.50;;;17.63;100.00
20752;BME280;10536;51.582;5.016;2022-09-01T04:27:58;102053.88;;;17.45;100.00
20752;BME280;10536;51.582;5.016;2022-09-01T04:33:01;102054.84;;;17.41;100.00
20752;BME280;10536;51.582;5.016;2022-09-01T04:38:01;102046.19;;;17.37;100.00
20752;BME280;10536;51.582;5.016;2022-09-01T04:43:02;102047.19;;;17.32;100.00
20752;BME280;10536;51.582;5.016;2022-09-01T04:48:04;102048.78;;;17.39;100.00
20752;BME280;10536;51.582;5.016;2022-09-01T04:53:04;102048.72;;;17.42;100.00
20752;BME280;10536;51.582;5.016;2022-09-01T04:58:06;102056.28;;;17.54;100.00
20752;BME280;10536;51.582;5.016;2022-09-01T05:03:06;102058.25;;;17.45;100.00
20752;BME280;10536;51.582;5.016;2022-09-01T05:08:18;102058.28;;;17.43;100.00
20752;BME280;10536;51.582;5.016;2022-09-01T05:13:22;102053.34;;;17.29;100.00
20752;BME280;10536;51.582;5.016;2022-09-01T05:18:23;102051.69;;;17.25;100.00
20752;BME280;10536;51.582;5.016;2022-09-01T05:23:23;102052.41;;;17.32;100.00
20752;BME280;10536;51.582;5.016;2022-09-01T05:28:25;102049.13;;;17.24;100.00
20752;BME280;10536;51.582;5.016;2022-09-01T05:33:26;102055.00;;;17.33;100.00
20752;BME280;10536;51.582;5.016;2022-09-01T05:38:26;102053.03;;;17.45;100.00
20752;BME280;10536;51.582;5.016;2022-09-01T05:43:30;102059.22;;;17.41;100.00
20752;BME280;10536;51.582;5.016;2022-09-01T05:48:31;102058.31;;;17.42;100.00
20752;BME280;10536;51.582;5.016;2022-09-01T05:53:38;102054.72;;;17.46;100.00
20752;BME280;10536;51.582;5.016;2022-09-01T05:58:40;102056.03;;;17.65;100.00
20752;BME280;10536;51.582;5.016;2022-09-01T06:03:44;102056.66;;;17.76;100.00
20752;BME280;10536;51.582;5.016;2022-09-01T06:08:44;102059.88;;;17.89;100.00
20752;BME280;10536;51.582;5.016;2022-09-01T06:13:48;102059.56;;;18.02;100.00
20752;BME280;10536;51.582;5.016;2022-09-01T06:18:51;102057.53;;;18.14;100.00
20752;BME280;10536;51.582;5.016;2022-09-01T06:23:54;102058.22;;;18.21;100.00
20752;BME280;10536;51.582;5.016;2022-09-01T06:28:57;102065.00;;;18.30;100.00
20752;BME280;10536;51.582;5.016;2022-09-01T06:34:01;102065.56;;;18.41;100.00
20752;BME280;10536;51.582;5.016;2022-09-01T06:39:03;102061.03;;;18.48;100.00
20752;BME280;10536;51.582;5.016;2022-09-01T06:44:04;102062.72;;;18.50;100.00
20752;BME280;10536;51.582;5.016;2022-09-01T06:49:05;102069.06;;;18.42;100.00
20752;BME280;10536;51.582;5.016;2022-09-01T06:54:10;102080.66;;;18.66;100.00
20752;BME280;10536;51.582;5.016;2022-09-01T06:59:13;102069.75;;;18.83;100.00
20752;BME280;10536;51.582;5.016;2022-09-01T07:04:17;102071.63;;;19.09;100.00
20752;BME280;10536;51.582;5.016;2022-09-01T07:09:19;102077.31;;;19.23;100.00
20752;BME280;10536;51.582;5.016;2022-09-01T07:14:20;102076.00;;;19.38;100.00
20752;BME280;10536;51.582;5.016;2022-09-01T07:19:21;102085.19;;;19.53;100.00
20752;BME280;10536;51.582;5.016;2022-09-01T07:24:21;102082.06;;;19.68;100.00
20752;BME280;10536;51.582;5.016;2022-09-01T07:29:22;102082.66;;;20.06;100.00
20752;BME280;10536;51.582;5.016;2022-09-01T07:34:22;102085.38;;;20.03;100.00
20752;BME280;10536;51.582;5.016;2022-09-01T07:39:23;102083.16;;;20.18;100.00
20752;BME280;10536;51.582;5.016;2022-09-01T07:44:23;102080.97;;;20.56;100.00
20752;BME280;10536;51.582;5.016;2022-09-01T07:49:25;102077.88;;;20.95;100.00
20752;BME280;10536;51.582;5.016;2022-09-01T07:54:28;102084.72;;;20.99;100.00
20752;BME280;10536;51.582;5.016;2022-09-01T07:59:29;102088.28;;;21.21;100.00
20752;BME280;10536;51.582;5.016;2022-09-01T08:04:31;102078.78;;;21.41;100.00
20752;BME280;10536;51.582;5.016;2022-09-01T08:09:36;102079.38;;;21.49;100.00
20752;BME280;10536;51.582;5.016;2022-09-01T08:14:37;102084.13;;;21.61;100.00
20752;BME280;10536;51.582;5.016;2022-09-01T08:19:37;102088.06;;;21.95;100.00
20752;BME280;10536;51.582;5.016;2022-09-01T08:24:38;102074.69;;;22.00;100.00
20752;BME280;10536;51.582;5.016;2022-09-01T08:29:39;102079.81;;;22.45;100.00
20752;BME280;10536;51.582;5.016;2022-09-01T08:34:39;102085.16;;;22.64;100.00
20752;BME280;10536;51.582;5.016;2022-09-01T08:39:42;102070.47;;;22.79;100.00
20752;BME280;10536;51.582;5.016;2022-09-01T08:49:55;102067.16;;;23.33;100.00
20752;BME280;10536;51.582;5.016;2022-09-01T08:54:58;102073.75;;;23.60;100.00
20752;BME280;10536;51.582;5.016;2022-09-01T09:00:02;102067.63;;;23.79;100.00
20752;BME280;10536;51.582;5.016;2022-09-01T09:05:28;102066.72;;;24.15;100.00
20752;BME280;10536;51.582;5.016;2022-09-01T09:10:37;102060.41;;;24.35;100.00
20752;BME280;10536;51.582;5.016;2022-09-01T09:15:51;102058.91;;;24.47;100.00
20752;BME280;10536;51.582;5.016;2022-09-01T09:20:54;102061.41;;;24.50;100.00
20752;BME280;10536;51.582;5.016;2022-09-01T09:25:55;102050.56;;;24.72;100.00
20752;BME280;10536;51.582;5.016;2022-09-01T09:36:30;102041.47;;;25.09;100.00
20752;BME280;10536;51.582;5.016;2022-09-01T09:41:31;102046.53;;;24.98;100.00
20752;BME280;10536;51.582;5.016;2022-09-01T09:46:34;102033.81;;;25.05;100.00
20752;BME280;10536;51.582;5.016;2022-09-01T09:51:37;102029.22;;;25.40;100.00
20752;BME280;10536;51.582;5.016;2022-09-01T09:56:39;102021.97;;;25.28;100.00
20752;BME280;10536;51.582;5.016;2022-09-01T10:01:49;102031.50;;;25.14;100.00
20752;BME280;10536;51.582;5.016;2022-09-01T10:06:50;102025.19;;;25.33;100.00
20752;BME280;10536;51.582;5.016;2022-09-01T10:11:57;102029.72;;;25.31;100.00
20752;BME280;10536;51.582;5.016;2022-09-01T10:17:05;102021.50;;;25.51;100.00
20752;BME280;10536;51.582;5.016;2022-09-01T10:22:08;102030.59;;;25.31;100.00
20752;BME280;10536;51.582;5.016;2022-09-01T10:27:15;102021.78;;;25.31;100.00
20752;BME280;10536;51.582;5.016;2022-09-01T10:32:26;102020.22;;;25.42;100.00
20752;BME280;10536;51.582;5.016;2022-09-01T10:37:28;102009.06;;;25.68;100.00
20752;BME280;10536;51.582;5.016;2022-09-01T10:42:30;102014.34;;;25.53;100.00
20752;BME280;10536;51.582;5.016;2022-09-01T10:47:32;102014.81;;;25.60;100.00
20752;BME280;10536;51.582;5.016;2022-09-01T10:57:46;101992.41;;;25.66;100.00
20752;BME280;10536;51.582;5.016;2022-09-01T11:13:35;102000.75;;;25.90;100.00
20752;BME280;10536;51.582;5.016;2022-09-01T11:18:36;101995.44;;;25.90;100.00
20752;BME280;10536;51.582;5.016;2022-09-01T11:23:37;102000.06;;;25.86;100.00
20752;BME280;10536;51.582;5.016;2022-09-01T11:28:39;101989.16;;;25.76;100.00
20752;BME280;10536;51.582;5.016;2022-09-01T11:33:51;101985.19;;;25.84;100.00
20752;BME280;10536;51.582;5.016;2022-09-01T11:39:02;101975.16;;;25.89;100.00
20752;BME280;10536;51.582;5.016;2022-09-01T11:44:12;101979.22;;;25.80;100.00
20752;BME280;10536;51.582;5.016;2022-09-01T11:49:33;101967.38;;;25.86;100.00
20752;BME280;10536;51.582;5.016;2022-09-01T11:54:41;101974.91;;;25.93;100.00
20752;BME280;10536;51.582;5.016;2022-09-01T11:59:44;101961.00;;;25.74;100.00
20752;BME280;10536;51.582;5.016;2022-09-01T12:04:45;101971.44;;;25.77;100.00
20752;BME280;10536;51.582;5.016;2022-09-01T12:09:46;101964.69;;;25.57;100.00
20752;BME280;10536;51.582;5.016;2022-09-01T12:14:55;101959.91;;;25.78;100.00
20752;BME280;10536;51.582;5.016;2022-09-01T12:20:29;101964.34;;;25.77;100.00
20752;BME280;10536;51.582;5.016;2022-09-01T12:25:32;101947.91;;;25.87;100.00
20752;BME280;10536;51.582;5.016;2022-09-01T12:30:33;101942.75;;;25.69;100.00
20752;BME280;10536;51.582;5.016;2022-09-01T12:35:34;101944.09;;;25.76;100.00
20752;BME280;10536;51.582;5.016;2022-09-01T12:40:35;101943.53;;;25.86;100.00
20752;BME280;10536;51.582;5.016;2022-09-01T12:45:40;101939.53;;;25.94;100.00
20752;BME280;10536;51.582;5.016;2022-09-01T12:50:43;101947.31;;;25.97;100.00
20752;BME280;10536;51.582;5.016;2022-09-01T12:55:58;101935.44;;;26.03;98.57
20752;BME280;10536;51.582;5.016;2022-09-01T13:01:05;101928.63;;;25.99;97.45
20752;BME280;10536;51.582;5.016;2022-09-01T13:06:16;101929.22;;;26.04;98.66
20752;BME280;10536;51.582;5.016;2022-09-01T13:11:17;101920.97;;;26.09;96.73
20752;BME280;10536;51.582;5.016;2022-09-01T13:16:19;101921.09;;;26.07;96.67
20752;BME280;10536;51.582;5.016;2022-09-01T13:21:19;101922.06;;;25.90;97.21
20752;BME280;10536;51.582;5.016;2022-09-01T13:26:21;101905.59;;;25.85;96.37
20752;BME280;10536;51.582;5.016;2022-09-01T13:31:21;101906.91;;;25.78;95.65
20752;BME280;10536;51.582;5.016;2022-09-01T13:36:22;101912.84;;;25.67;94.23
20752;BME280;10536;51.582;5.016;2022-09-01T13:41:22;101898.75;;;25.67;94.28
20752;BME280;10536;51.582;5.016;2022-09-01T13:46:23;101898.47;;;25.71;92.58
20752;BME280;10536;51.582;5.016;2022-09-01T13:51:25;101897.03;;;25.66;92.20
20752;BME280;10536;51.582;5.016;2022-09-01T13:56:29;101889.00;;;25.67;91.70
20752;BME280;10536;51.582;5.016;2022-09-01T14:01:29;101890.22;;;25.61;90.56
20752;BME280;10536;51.582;5.016;2022-09-01T14:06:30;101893.09;;;25.73;89.27
20752;BME280;10536;51.582;5.016;2022-09-01T14:11:31;101882.94;;;25.65;87.06
20752;BME280;10536;51.582;5.016;2022-09-01T14:16:31;101882.84;;;25.67;87.35
20752;BME280;10536;51.582;5.016;2022-09-01T14:21:32;101865.75;;;25.72;86.97
20752;BME280;10536;51.582;5.016;2022-09-01T14:26:33;101862.13;;;25.73;86.04
20752;BME280;10536;51.582;5.016;2022-09-01T14:31:33;101866.50;;;25.74;88.45
20752;BME280;10536;51.582;5.016;2022-09-01T14:36:35;101855.22;;;25.71;89.64
20752;BME280;10536;51.582;5.016;2022-09-01T14:41:35;101850.00;;;25.69;88.29
20752;BME280;10536;51.582;5.016;2022-09-01T14:46:36;101848.13;;;25.71;87.53
20752;BME280;10536;51.582;5.016;2022-09-01T14:51:37;101840.84;;;25.75;85.88
20752;BME280;10536;51.582;5.016;2022-09-01T14:56:37;101843.66;;;25.57;86.95
20752;BME280;10536;51.582;5.016;2022-09-01T15:14:13;101820.78;;;25.71;82.87
20752;BME280;10536;51.582;5.016;2022-09-01T15:32:01;101823.13;;;25.47;86.74
20752;BME280;10536;51.582;5.016;2022-09-01T15:37:03;101815.44;;;25.42;87.03
20752;BME280;10536;51.582;5.016;2022-09-01T15:42:03;101810.72;;;25.47;88.70
20752;BME280;10536;51.582;5.016;2022-09-01T15:47:04;101802.63;;;25.65;87.57
20752;BME280;10536;51.582;5.016;2022-09-01T15:52:04;101804.09;;;25.54;88.28
20752;BME280;10536;51.582;5.016;2022-09-01T15:57:05;101805.22;;;25.36;88.86
20752;BME280;10536;51.582;5.016;2022-09-01T16:02:06;101793.13;;;25.46;89.01
20752;BME280;10536;51.582;5.016;2022-09-01T16:07:06;101794.75;;;25.49;89.13
20752;BME280;10536;51.582;5.016;2022-09-01T16:12:07;101788.03;;;25.72;88.62
20752;BME280;10536;51.582;5.016;2022-09-01T16:17:40;101787.47;;;25.67;88.62
20752;BME280;10536;51.582;5.016;2022-09-01T16:22:53;101786.22;;;25.44;88.99
20752;BME280;10536;51.582;5.016;2022-09-01T16:27:55;101774.38;;;25.35;89.92
20752;BME280;10536;51.582;5.016;2022-09-01T16:32:57;101780.09;;;25.43;89.46
20752;BME280;10536;51.582;5.016;2022-09-01T16:38:09;101766.44;;;25.35;90.36
20752;BME280;10536;51.582;5.016;2022-09-01T16:43:25;101757.38;;;25.39;89.75
20752;BME280;10536;51.582;5.016;2022-09-01T16:48:56;101751.25;;;25.53;92.16
20752;BME280;10536;51.582;5.016;2022-09-01T16:54:21;101760.59;;;25.30;96.24
20752;BME280;10536;51.582;5.016;2022-09-01T16:59:45;101753.78;;;25.26;100.00
20752;BME280;10536;51.582;5.016;2022-09-01T17:04:53;101753.06;;;25.08;98.67
20752;BME280;10536;51.582;5.016;2022-09-01T17:15:32;101746.72;;;25.10;98.87
20752;BME280;10536;51.582;5.016;2022-09-01T17:20:40;101760.63;;;24.83;100.00
20752;BME280;10536;51.582;5.016;2022-09-01T17:25:50;101752.09;;;25.09;98.64
20752;BME280;10536;51.582;5.016;2022-09-01T17:31:04;101746.50;;;24.99;98.07
20752;BME280;10536;51.582;5.016;2022-09-01T17:36:38;101746.94;;;24.91;98.27
20752;BME280;10536;51.582;5.016;2022-09-01T17:41:46;101747.72;;;24.93;97.91
20752;BME280;10536;51.582;5.016;2022-09-01T17:46:59;101737.19;;;24.77;99.68
20752;BME280;10536;51.582;5.016;2022-09-01T17:57:12;101735.63;;;24.59;99.68
20752;BME280;10536;51.582;5.016;2022-09-01T18:02:29;101743.19;;;24.49;100.00
20752;BME280;10536;51.582;5.016;2022-09-01T18:13:41;101741.84;;;24.26;100.00
20752;BME280;10536;51.582;5.016;2022-09-01T18:18:46;101759.75;;;24.05;100.00
20752;BME280;10536;51.582;5.016;2022-09-01T18:23:51;101751.97;;;24.02;100.00
20752;BME280;10536;51.582;5.016;2022-09-01T18:28:55;101754.72;;;23.84;100.00
20752;BME280;10536;51.582;5.016;2022-09-01T18:39:56;101771.44;;;23.68;100.00
20752;BME280;10536;51.582;5.016;2022-09-01T18:50:22;101775.38;;;23.08;100.00
20752;BME280;10536;51.582;5.016;2022-09-01T18:55:37;101769.50;;;23.03;100.00
20752;BME280;10536;51.582;5.016;2022-09-01T19:01:06;101768.41;;;23.07;100.00
20752;BME280;10536;51.582;5.016;2022-09-01T19:11:45;101774.19;;;22.96;100.00
20752;BME280;10536;51.582;5.016;2022-09-01T19:17:02;101776.50;;;22.67;100.00
20752;BME280;10536;51.582;5.016;2022-09-01T19:22:18;101780.63;;;22.73;100.00
20752;BME280;10536;51.582;5.016;2022-09-01T19:27:27;101780.91;;;22.67;100.00
20752;BME280;10536;51.582;5.016;2022-09-01T19:32:30;101783.66;;;22.46;100.00
20752;BME280;10536;51.582;5.016;2022-09-01T19:37:32;101787.19;;;22.45;100.00
20752;BME280;10536;51.582;5.016;2022-09-01T19:42:41;101783.31;;;22.35;100.00
20752;BME280;10536;51.582;5.016;2022-09-01T19:53:09;101791.34;;;22.13;100.00
20752;BME280;10536;51.582;5.016;2022-09-01T19:58:20;101785.41;;;22.08;100.00
20752;BME280;10536;51.582;5.016;2022-09-01T20:03:28;101801.03;;;22.13;100.00
20752;BME280;10536;51.582;5.016;2022-09-01T20:08:46;101789.19;;;22.02;100.00
20752;BME280;10536;51.582;5.016;2022-09-01T20:24:42;101790.59;;;21.91;100.00
20752;BME280;10536;51.582;5.016;2022-09-01T20:35:10;101794.69;;;21.77;100.00
20752;BME280;10536;51.582;5.016;2022-09-01T20:40:24;101790.66;;;21.89;100.00
20752;BME280;10536;51.582;5.016;2022-09-01T20:45:27;101788.66;;;21.75;100.00
20752;BME280;10536;51.582;5.016;2022-09-01T20:51:09;101781.53;;;21.77;100.00
20752;BME280;10536;51.582;5.016;2022-09-01T20:56:35;101781.81;;;21.71;100.00
20752;BME280;10536;51.582;5.016;2022-09-01T21:01:54;101779.47;;;21.65;100.00
20752;BME280;10536;51.582;5.016;2022-09-01T21:07:14;101785.56;;;21.65;100.00
20752;BME280;10536;51.582;5.016;2022-09-01T21:12:36;101782.41;;;21.78;100.00
20752;BME280;10536;51.582;5.016;2022-09-01T21:24:04;101775.13;;;21.43;100.00
20752;BME280;10536;51.582;5.016;2022-09-01T21:54:23;101755.44;;;21.11;100.00
20752;BME280;10536;51.582;5.016;2022-09-01T21:59:23;101749.38;;;20.88;100.00
20752;BME280;10536;51.582;5.016;2022-09-01T22:04:23;101749.50;;;20.85;100.00
20752;BME280;10536;51.582;5.016;2022-09-01T22:09:24;101748.31;;;20.93;100.00
20752;BME280;10536;51.582;5.016;2022-09-01T22:14:24;101742.00;;;20.97;100.00
20752;BME280;10536;51.582;5.016;2022-09-01T22:19:27;101738.75;;;21.12;100.00
20752;BME280;10536;51.582;5.016;2022-09-01T22:24:30;101737.03;;;20.90;100.00
20752;BME280;10536;51.582;5.016;2022-09-01T22:29:31;101737.81;;;20.72;100.00
20752;BME280;10536;51.582;5.016;2022-09-01T22:34:34;101741.44;;;20.46;100.00
20752;BME280;10536;51.582;5.016;2022-09-01T22:39:41;101736.38;;;20.41;100.00
20752;BME280;10536;51.582;5.016;2022-09-01T22:44:42;101732.22;;;20.36;100.00
20752;BME280;10536;51.582;5.016;2022-09-01T22:49:42;101729.34;;;20.20;100.00
20752;BME280;10536;51.582;5.016;2022-09-01T22:54:42;101725.53;;;20.05;100.00
20752;BME280;10536;51.582;5.016;2022-09-01T22:59:43;101719.41;;;20.04;100.00
20752;BME280;10536;51.582;5.016;2022-09-01T23:04:43;101716.50;;;20.12;100.00
20752;BME280;10536;51.582;5.016;2022-09-01T23:09:45;101710.69;;;20.04;100.00
20752;BME280;10536;51.582;5.016;2022-09-01T23:14:46;101720.84;;;19.89;100.00
20752;BME280;10536;51.582;5.016;2022-09-01T23:19:46;101717.63;;;19.83;100.00
20752;BME280;10536;51.582;5.016;2022-09-01T23:24:46;101707.84;;;19.86;100.00
20752;BME280;10536;51.582;5.016;2022-09-01T23:29:47;101707.53;;;19.70;100.00
20752;BME280;10536;51.582;5.016;2022-09-01T23:34:48;101698.22;;;19.62;100.00
20752;BME280;10536;51.582;5.016;2022-09-01T23:39:58;101700.56;;;19.69;100.00
20752;BME280;10536;51.582;5.016;2022-09-01T23:45:07;101699.03;;;19.64;100.00
20752;BME280;10536;51.582;5.016;2022-09-01T23:50:08;101689.16;;;19.47;100.00
